sensor_id;sensor_type;location;lat;lon;timestamp;temperature;humidity
80779;SHT30;70170;47.856;10.956;2023-05-29T00:01:20;7.51;88.60
80779;SHT30;70170;47.856;10.956;2023-05-29T00:03:46;7.33;89.28
80779;SHT30;70170;47.856;10.956;2023-05-29T00:06:12;7.27;89.71
80779;SHT30;70170;47.856;10.956;2023-05-29T00:08:38;7.50;89.81
80779;SHT30;70170;47.856;10.956;2023-05-29T00:11:03;7.51;89.61
80779;SHT30;70170;47.856;10.956;2023-05-29T00:13:29;7.56;89.07
80779;SHT30;70170;47.856;10.956;2023-05-29T00:15:54;7.50;89.19
80779;SHT30;70170;47.856;10.956;2023-05-29T00:18:20;7.56;89.35
80779;SHT30;70170;47.856;10.956;2023-05-29T00:20:45;8.01;86.35
80779;SHT30;70170;47.856;10.956;2023-05-29T00:23:11;8.03;85.38
80779;SHT30;70170;47.856;10.956;2023-05-29T00:25:36;8.40;84.44
80779;SHT30;70170;47.856;10.956;2023-05-29T00:28:01;8.40;84.48
80779;SHT30;70170;47.856;10.956;2023-05-29T00:30:27;7.78;86.17
80779;SHT30;70170;47.856;10.956;2023-05-29T00:32:52;7.49;87.55
80779;SHT30;70170;47.856;10.956;2023-05-29T00:35:18;7.29;90.22
80779;SHT30;70170;47.856;10.956;2023-05-29T00:37:43;7.22;91.00
80779;SHT30;70170;47.856;10.956;2023-05-29T00:40:09;7.02;91.12
80779;SHT30;70170;47.856;10.956;2023-05-29T00:42:35;6.81;91.72
80779;SHT30;70170;47.856;10.956;2023-05-29T00:45:00;6.70;92.53
80779;SHT30;70170;47.856;10.956;2023-05-29T00:47:25;6.49;93.25
80779;SHT30;70170;47.856;10.956;2023-05-29T00:49:51;6.36;93.96
80779;SHT30;70170;47.856;10.956;2023-05-29T00:52:17;6.33;94.11
80779;SHT30;70170;47.856;10.956;2023-05-29T00:54:45;6.18;94.22
80779;SHT30;70170;47.856;10.956;2023-05-29T00:57:12;6.06;94.88
80779;SHT30;70170;47.856;10.956;2023-05-29T00:59:37;6.03;95.64
80779;SHT30;70170;47.856;10.956;2023-05-29T01:02:04;6.05;95.27
80779;SHT30;70170;47.856;10.956;2023-05-29T01:04:29;6.13;94.69
80779;SHT30;70170;47.856;10.956;2023-05-29T01:06:58;6.61;92.22
80779;SHT30;70170;47.856;10.956;2023-05-29T01:09:24;6.64;91.36
80779;SHT30;70170;47.856;10.956;2023-05-29T01:12:08;6.78;90.61
80779;SHT30;70170;47.856;10.956;2023-05-29T01:14:47;6.83;91.10
80779;SHT30;70170;47.856;10.956;2023-05-29T01:20:09;6.32;92.89
80779;SHT30;70170;47.856;10.956;2023-05-29T01:23:10;6.71;91.56
80779;SHT30;70170;47.856;10.956;2023-05-29T01:28:15;6.28;92.99
80779;SHT30;70170;47.856;10.956;2023-05-29T01:30:43;6.66;91.97
80779;SHT30;70170;47.856;10.956;2023-05-29T01:33:09;6.91;90.12
80779;SHT30;70170;47.856;10.956;2023-05-29T01:35:34;6.89;89.61
80779;SHT30;70170;47.856;10.956;2023-05-29T01:38:00;6.58;90.24
80779;SHT30;70170;47.856;10.956;2023-05-29T01:40:26;6.41;91.31
80779;SHT30;70170;47.856;10.956;2023-05-29T01:42:51;6.19;93.77
80779;SHT30;70170;47.856;10.956;2023-05-29T01:45:17;6.11;94.45
80779;SHT30;70170;47.856;10.956;2023-05-29T01:47:43;5.97;94.92
80779;SHT30;70170;47.856;10.956;2023-05-29T01:50:09;5.78;95.15
80779;SHT30;70170;47.856;10.956;2023-05-29T01:52:35;5.74;96.70
80779;SHT30;70170;47.856;10.956;2023-05-29T01:55:01;5.54;96.68
80779;SHT30;70170;47.856;10.956;2023-05-29T01:57:27;5.28;96.98
80779;SHT30;70170;47.856;10.956;2023-05-29T01:59:53;5.16;97.75
80779;SHT30;70170;47.856;10.956;2023-05-29T02:02:21;5.30;98.24
80779;SHT30;70170;47.856;10.956;2023-05-29T02:04:47;5.32;98.25
80779;SHT30;70170;47.856;10.956;2023-05-29T02:07:13;5.60;97.19
80779;SHT30;70170;47.856;10.956;2023-05-29T02:09:40;5.54;96.64
80779;SHT30;70170;47.856;10.956;2023-05-29T02:12:06;5.56;96.84
80779;SHT30;70170;47.856;10.956;2023-05-29T02:14:32;5.61;96.82
80779;SHT30;70170;47.856;10.956;2023-05-29T02:16:57;5.56;97.35
80779;SHT30;70170;47.856;10.956;2023-05-29T02:19:23;5.64;98.25
80779;SHT30;70170;47.856;10.956;2023-05-29T02:21:50;5.54;98.73
80779;SHT30;70170;47.856;10.956;2023-05-29T02:24:15;5.57;98.78
80779;SHT30;70170;47.856;10.956;2023-05-29T02:26:41;5.61;98.36
80779;SHT30;70170;47.856;10.956;2023-05-29T02:29:07;5.58;98.45
80779;SHT30;70170;47.856;10.956;2023-05-29T02:31:33;5.58;97.82
80779;SHT30;70170;47.856;10.956;2023-05-29T02:33:58;5.44;98.12
80779;SHT30;70170;47.856;10.956;2023-05-29T02:36:24;5.37;98.08
80779;SHT30;70170;47.856;10.956;2023-05-29T02:38:49;5.22;98.57
80779;SHT30;70170;47.856;10.956;2023-05-29T02:41:15;5.25;98.83
80779;SHT30;70170;47.856;10.956;2023-05-29T02:43:40;5.20;98.82
80779;SHT30;70170;47.856;10.956;2023-05-29T02:46:05;5.08;98.83
80779;SHT30;70170;47.856;10.956;2023-05-29T02:48:30;5.07;99.90
80779;SHT30;70170;47.856;10.956;2023-05-29T02:50:56;4.88;99.42
80779;SHT30;70170;47.856;10.956;2023-05-29T02:53:21;4.80;99.99
80779;SHT30;70170;47.856;10.956;2023-05-29T02:55:48;4.54;99.92
80779;SHT30;70170;47.856;10.956;2023-05-29T02:58:13;4.64;99.99
80779;SHT30;70170;47.856;10.956;2023-05-29T03:00:41;4.83;99.99
80779;SHT30;70170;47.856;10.956;2023-05-29T03:03:06;5.08;98.68
80779;SHT30;70170;47.856;10.956;2023-05-29T03:05:32;5.30;97.97
80779;SHT30;70170;47.856;10.956;2023-05-29T03:07:57;5.32;97.54
80779;SHT30;70170;47.856;10.956;2023-05-29T03:10:22;5.51;96.88
80779;SHT30;70170;47.856;10.956;2023-05-29T03:12:48;5.47;97.00
80779;SHT30;70170;47.856;10.956;2023-05-29T03:15:13;5.30;97.12
80779;SHT30;70170;47.856;10.956;2023-05-29T03:17:39;5.23;97.47
80779;SHT30;70170;47.856;10.956;2023-05-29T03:20:05;5.12;98.02
80779;SHT30;70170;47.856;10.956;2023-05-29T03:22:32;5.15;98.07
80779;SHT30;70170;47.856;10.956;2023-05-29T03:24:57;5.30;98.21
80779;SHT30;70170;47.856;10.956;2023-05-29T03:27:22;5.28;98.22
80779;SHT30;70170;47.856;10.956;2023-05-29T03:29:48;5.19;98.32
80779;SHT30;70170;47.856;10.956;2023-05-29T03:32:13;5.23;99.04
80779;SHT30;70170;47.856;10.956;2023-05-29T03:34:39;5.25;98.88
80779;SHT30;70170;47.856;10.956;2023-05-29T03:37:05;5.48;98.22
80779;SHT30;70170;47.856;10.956;2023-05-29T03:39:30;5.37;98.22
80779;SHT30;70170;47.856;10.956;2023-05-29T03:41:55;5.20;98.81
80779;SHT30;70170;47.856;10.956;2023-05-29T03:44:21;5.01;98.69
80779;SHT30;70170;47.856;10.956;2023-05-29T03:46:46;4.91;99.47
80779;SHT30;70170;47.856;10.956;2023-05-29T03:49:12;4.96;99.99
80779;SHT30;70170;47.856;10.956;2023-05-29T03:51:37;5.19;99.99
80779;SHT30;70170;47.856;10.956;2023-05-29T03:54:03;5.61;99.68
80779;SHT30;70170;47.856;10.956;2023-05-29T03:56:28;5.88;98.71
80779;SHT30;70170;47.856;10.956;2023-05-29T03:58:54;6.06;97.95
80779;SHT30;70170;47.856;10.956;2023-05-29T04:01:19;6.23;97.15
80779;SHT30;70170;47.856;10.956;2023-05-29T04:03:45;6.49;95.17
80779;SHT30;70170;47.856;10.956;2023-05-29T04:06:11;6.74;95.05
80779;SHT30;70170;47.856;10.956;2023-05-29T04:08:36;6.87;94.10
80779;SHT30;70170;47.856;10.956;2023-05-29T04:11:02;7.09;94.09
80779;SHT30;70170;47.856;10.956;2023-05-29T04:13:28;7.29;92.97
80779;SHT30;70170;47.856;10.956;2023-05-29T04:15:54;7.49;92.00
80779;SHT30;70170;47.856;10.956;2023-05-29T04:18:20;7.71;92.05
80779;SHT30;70170;47.856;10.956;2023-05-29T04:20:45;7.87;92.01
80779;SHT30;70170;47.856;10.956;2023-05-29T04:23:12;8.03;91.62
80779;SHT30;70170;47.856;10.956;2023-05-29T04:25:38;8.26;91.54
80779;SHT30;70170;47.856;10.956;2023-05-29T04:28:03;8.43;90.33
80779;SHT30;70170;47.856;10.956;2023-05-29T04:30:28;8.60;90.18
80779;SHT30;70170;47.856;10.956;2023-05-29T04:32:54;8.87;90.59
80779;SHT30;70170;47.856;10.956;2023-05-29T04:35:19;9.12;89.38
80779;SHT30;70170;47.856;10.956;2023-05-29T04:37:44;9.33;87.79
80779;SHT30;70170;47.856;10.956;2023-05-29T04:40:11;9.53;86.49
80779;SHT30;70170;47.856;10.956;2023-05-29T04:42:37;9.79;85.60
80779;SHT30;70170;47.856;10.956;2023-05-29T04:45:03;9.97;83.96
80779;SHT30;70170;47.856;10.956;2023-05-29T04:47:32;10.30;83.77
80779;SHT30;70170;47.856;10.956;2023-05-29T04:50:02;10.60;83.22
80779;SHT30;70170;47.856;10.956;2023-05-29T04:52:27;10.84;82.41
80779;SHT30;70170;47.856;10.956;2023-05-29T04:54:54;11.02;81.43
80779;SHT30;70170;47.856;10.956;2023-05-29T04:57:19;11.23;80.80
80779;SHT30;70170;47.856;10.956;2023-05-29T04:59:45;11.52;80.60
80779;SHT30;70170;47.856;10.956;2023-05-29T05:02:10;11.82;80.23
80779;SHT30;70170;47.856;10.956;2023-05-29T05:04:35;12.05;79.66
80779;SHT30;70170;47.856;10.956;2023-05-29T05:07:02;12.29;79.71
80779;SHT30;70170;47.856;10.956;2023-05-29T05:09:28;12.47;77.84
80779;SHT30;70170;47.856;10.956;2023-05-29T05:11:54;12.52;76.98
80779;SHT30;70170;47.856;10.956;2023-05-29T05:14:20;12.54;75.32
80779;SHT30;70170;47.856;10.956;2023-05-29T05:16:45;12.70;76.01
80779;SHT30;70170;47.856;10.956;2023-05-29T05:19:10;12.98;75.61
80779;SHT30;70170;47.856;10.956;2023-05-29T05:21:35;13.15;74.39
80779;SHT30;70170;47.856;10.956;2023-05-29T05:24:01;13.35;74.55
80779;SHT30;70170;47.856;10.956;2023-05-29T05:26:26;13.49;73.59
80779;SHT30;70170;47.856;10.956;2023-05-29T05:28:51;13.77;73.33
80779;SHT30;70170;47.856;10.956;2023-05-29T05:31:17;14.07;72.15
80779;SHT30;70170;47.856;10.956;2023-05-29T05:33:42;14.37;71.03
80779;SHT30;70170;47.856;10.956;2023-05-29T05:36:08;14.70;69.27
80779;SHT30;70170;47.856;10.956;2023-05-29T05:38:33;14.83;68.71
80779;SHT30;70170;47.856;10.956;2023-05-29T05:40:58;15.11;68.73
80779;SHT30;70170;47.856;10.956;2023-05-29T05:43:24;15.36;68.42
80779;SHT30;70170;47.856;10.956;2023-05-29T05:45:51;15.69;65.96
80779;SHT30;70170;47.856;10.956;2023-05-29T05:48:16;15.93;66.39
80779;SHT30;70170;47.856;10.956;2023-05-29T05:50:42;16.22;67.68
80779;SHT30;70170;47.856;10.956;2023-05-29T05:53:07;16.39;65.94
80779;SHT30;70170;47.856;10.956;2023-05-29T05:55:32;16.39;66.45
80779;SHT30;70170;47.856;10.956;2023-05-29T05:57:57;16.41;65.41
80779;SHT30;70170;47.856;10.956;2023-05-29T06:00:23;16.41;65.07
80779;SHT30;70170;47.856;10.956;2023-05-29T06:02:49;16.29;65.87
80779;SHT30;70170;47.856;10.956;2023-05-29T06:05:14;16.35;65.24
80779;SHT30;70170;47.856;10.956;2023-05-29T06:07:40;16.67;64.99
80779;SHT30;70170;47.856;10.956;2023-05-29T06:10:05;16.87;65.45
80779;SHT30;70170;47.856;10.956;2023-05-29T06:12:31;16.85;65.34
80779;SHT30;70170;47.856;10.956;2023-05-29T06:14:56;17.00;64.30
80779;SHT30;70170;47.856;10.956;2023-05-29T06:17:22;16.88;65.39
80779;SHT30;70170;47.856;10.956;2023-05-29T06:19:48;17.15;64.68
80779;SHT30;70170;47.856;10.956;2023-05-29T06:22:14;17.38;64.28
80779;SHT30;70170;47.856;10.956;2023-05-29T06:24:40;17.53;63.67
80779;SHT30;70170;47.856;10.956;2023-05-29T06:27:05;17.29;64.91
80779;SHT30;70170;47.856;10.956;2023-05-29T06:29:31;17.15;66.44
80779;SHT30;70170;47.856;10.956;2023-05-29T06:31:57;16.57;68.96
80779;SHT30;70170;47.856;10.956;2023-05-29T06:34:22;16.17;69.05
80779;SHT30;70170;47.856;10.956;2023-05-29T06:36:47;17.49;66.85
80779;SHT30;70170;47.856;10.956;2023-05-29T06:39:13;17.73;66.45
80779;SHT30;70170;47.856;10.956;2023-05-29T06:41:38;16.85;68.39
80779;SHT30;70170;47.856;10.956;2023-05-29T06:44:04;17.73;66.87
80779;SHT30;70170;47.856;10.956;2023-05-29T06:46:29;18.25;64.62
80779;SHT30;70170;47.856;10.956;2023-05-29T06:48:55;18.35;64.66
80779;SHT30;70170;47.856;10.956;2023-05-29T06:51:21;18.82;61.07
80779;SHT30;70170;47.856;10.956;2023-05-29T06:53:46;19.18;60.24
80779;SHT30;70170;47.856;10.956;2023-05-29T06:56:11;18.90;60.67
80779;SHT30;70170;47.856;10.956;2023-05-29T06:58:37;18.91;59.28
80779;SHT30;70170;47.856;10.956;2023-05-29T07:01:02;19.51;59.25
80779;SHT30;70170;47.856;10.956;2023-05-29T07:03:27;19.15;58.18
80779;SHT30;70170;47.856;10.956;2023-05-29T07:05:53;17.98;60.07
80779;SHT30;70170;47.856;10.956;2023-05-29T07:08:19;18.10;62.75
80779;SHT30;70170;47.856;10.956;2023-05-29T07:10:44;19.04;60.37
80779;SHT30;70170;47.856;10.956;2023-05-29T07:13:09;19.14;59.44
80779;SHT30;70170;47.856;10.956;2023-05-29T07:15:37;19.22;59.81
80779;SHT30;70170;47.856;10.956;2023-05-29T07:18:02;19.35;57.94
80779;SHT30;70170;47.856;10.956;2023-05-29T07:20:27;18.89;58.67
80779;SHT30;70170;47.856;10.956;2023-05-29T07:22:53;18.69;61.28
80779;SHT30;70170;47.856;10.956;2023-05-29T07:25:18;18.65;60.86
80779;SHT30;70170;47.856;10.956;2023-05-29T07:27:43;18.55;60.27
80779;SHT30;70170;47.856;10.956;2023-05-29T07:30:09;19.00;58.17
80779;SHT30;70170;47.856;10.956;2023-05-29T07:32:35;18.49;59.62
80779;SHT30;70170;47.856;10.956;2023-05-29T07:35:00;18.28;59.32
80779;SHT30;70170;47.856;10.956;2023-05-29T07:37:25;17.87;63.08
80779;SHT30;70170;47.856;10.956;2023-05-29T07:39:51;17.43;63.22
80779;SHT30;70170;47.856;10.956;2023-05-29T07:42:16;17.62;63.84
80779;SHT30;70170;47.856;10.956;2023-05-29T07:44:42;17.69;63.21
80779;SHT30;70170;47.856;10.956;2023-05-29T07:47:08;18.48;62.86
80779;SHT30;70170;47.856;10.956;2023-05-29T07:49:34;18.70;60.57
80779;SHT30;70170;47.856;10.956;2023-05-29T07:52:01;18.52;62.21
80779;SHT30;70170;47.856;10.956;2023-05-29T07:54:26;18.46;61.94
80779;SHT30;70170;47.856;10.956;2023-05-29T07:56:51;18.53;61.45
80779;SHT30;70170;47.856;10.956;2023-05-29T07:59:16;18.72;60.99
80779;SHT30;70170;47.856;10.956;2023-05-29T08:01:42;19.24;60.43
80779;SHT30;70170;47.856;10.956;2023-05-29T08:04:08;19.76;59.57
80779;SHT30;70170;47.856;10.956;2023-05-29T08:06:34;19.86;59.21
80779;SHT30;70170;47.856;10.956;2023-05-29T08:08:59;18.91;62.89
80779;SHT30;70170;47.856;10.956;2023-05-29T08:11:24;18.82;61.01
80779;SHT30;70170;47.856;10.956;2023-05-29T08:13:50;19.67;58.02
80779;SHT30;70170;47.856;10.956;2023-05-29T08:16:15;19.03;59.48
80779;SHT30;70170;47.856;10.956;2023-05-29T08:18:42;18.83;59.48
80779;SHT30;70170;47.856;10.956;2023-05-29T08:21:07;18.91;59.42
80779;SHT30;70170;47.856;10.956;2023-05-29T08:23:34;18.82;59.77
80779;SHT30;70170;47.856;10.956;2023-05-29T08:26:00;19.07;60.41
80779;SHT30;70170;47.856;10.956;2023-05-29T08:28:25;19.61;58.73
80779;SHT30;70170;47.856;10.956;2023-05-29T08:30:52;19.94;58.73
80779;SHT30;70170;47.856;10.956;2023-05-29T08:33:17;19.97;58.19
80779;SHT30;70170;47.856;10.956;2023-05-29T08:35:42;19.44;58.83
80779;SHT30;70170;47.856;10.956;2023-05-29T08:38:08;19.48;58.34
80779;SHT30;70170;47.856;10.956;2023-05-29T08:40:33;19.28;59.77
80779;SHT30;70170;47.856;10.956;2023-05-29T08:43:12;19.39;60.03
80779;SHT30;70170;47.856;10.956;2023-05-29T08:45:42;19.84;62.15
80779;SHT30;70170;47.856;10.956;2023-05-29T08:48:09;19.72;59.08
80779;SHT30;70170;47.856;10.956;2023-05-29T08:50:35;20.29;58.66
80779;SHT30;70170;47.856;10.956;2023-05-29T08:53:01;20.41;58.25
80779;SHT30;70170;47.856;10.956;2023-05-29T08:55:26;20.17;59.01
80779;SHT30;70170;47.856;10.956;2023-05-29T08:57:52;19.86;58.17
80779;SHT30;70170;47.856;10.956;2023-05-29T09:00:19;20.27;55.80
80779;SHT30;70170;47.856;10.956;2023-05-29T09:02:45;20.29;56.50
80779;SHT30;70170;47.856;10.956;2023-05-29T09:05:14;20.16;58.45
80779;SHT30;70170;47.856;10.956;2023-05-29T09:07:40;20.57;57.19
80779;SHT30;70170;47.856;10.956;2023-05-29T09:10:09;20.48;56.34
80779;SHT30;70170;47.856;10.956;2023-05-29T09:12:35;21.08;56.35
80779;SHT30;70170;47.856;10.956;2023-05-29T09:15:01;20.94;56.61
80779;SHT30;70170;47.856;10.956;2023-05-29T09:17:33;20.41;57.37
80779;SHT30;70170;47.856;10.956;2023-05-29T09:19:58;20.00;57.99
80779;SHT30;70170;47.856;10.956;2023-05-29T09:22:24;20.66;58.76
80779;SHT30;70170;47.856;10.956;2023-05-29T09:24:49;20.31;57.54
80779;SHT30;70170;47.856;10.956;2023-05-29T09:27:16;20.42;56.78
80779;SHT30;70170;47.856;10.956;2023-05-29T09:29:43;20.48;56.42
80779;SHT30;70170;47.856;10.956;2023-05-29T09:32:12;20.34;57.56
80779;SHT30;70170;47.856;10.956;2023-05-29T09:34:38;20.82;56.82
80779;SHT30;70170;47.856;10.956;2023-05-29T09:37:06;20.87;56.88
80779;SHT30;70170;47.856;10.956;2023-05-29T09:39:44;21.07;53.55
80779;SHT30;70170;47.856;10.956;2023-05-29T09:42:10;20.65;56.94
80779;SHT30;70170;47.856;10.956;2023-05-29T09:44:36;20.56;56.43
80779;SHT30;70170;47.856;10.956;2023-05-29T09:47:01;21.10;55.79
80779;SHT30;70170;47.856;10.956;2023-05-29T09:49:27;20.71;54.01
80779;SHT30;70170;47.856;10.956;2023-05-29T09:51:56;20.57;55.08
80779;SHT30;70170;47.856;10.956;2023-05-29T09:54:27;20.45;55.45
80779;SHT30;70170;47.856;10.956;2023-05-29T09:56:55;21.12;52.54
80779;SHT30;70170;47.856;10.956;2023-05-29T09:59:23;20.69;57.34
80779;SHT30;70170;47.856;10.956;2023-05-29T10:01:48;20.09;56.16
80779;SHT30;70170;47.856;10.956;2023-05-29T10:04:14;20.29;56.89
80779;SHT30;70170;47.856;10.956;2023-05-29T10:06:46;20.46;51.06
80779;SHT30;70170;47.856;10.956;2023-05-29T10:09:15;20.31;54.02
80779;SHT30;70170;47.856;10.956;2023-05-29T10:11:43;20.65;54.38
80779;SHT30;70170;47.856;10.956;2023-05-29T10:14:11;20.69;54.25
80779;SHT30;70170;47.856;10.956;2023-05-29T10:16:42;20.06;57.43
80779;SHT30;70170;47.856;10.956;2023-05-29T10:19:12;21.07;54.11
80779;SHT30;70170;47.856;10.956;2023-05-29T10:21:39;21.21;51.84
80779;SHT30;70170;47.856;10.956;2023-05-29T10:24:07;21.31;54.44
80779;SHT30;70170;47.856;10.956;2023-05-29T10:26:36;21.28;51.02
80779;SHT30;70170;47.856;10.956;2023-05-29T10:29:10;21.67;51.75
80779;SHT30;70170;47.856;10.956;2023-05-29T10:31:59;21.35;51.67
80779;SHT30;70170;47.856;10.956;2023-05-29T10:34:31;21.67;52.48
80779;SHT30;70170;47.856;10.956;2023-05-29T10:37:08;21.48;50.42
80779;SHT30;70170;47.856;10.956;2023-05-29T10:39:34;21.63;50.19
80779;SHT30;70170;47.856;10.956;2023-05-29T10:42:00;21.85;51.13
80779;SHT30;70170;47.856;10.956;2023-05-29T10:49:25;21.42;49.67
80779;SHT30;70170;47.856;10.956;2023-05-29T10:51:51;21.82;47.50
80779;SHT30;70170;47.856;10.956;2023-05-29T10:54:21;23.17;47.00
80779;SHT30;70170;47.856;10.956;2023-05-29T10:56:56;22.65;50.78
80779;SHT30;70170;47.856;10.956;2023-05-29T10:59:22;22.38;49.36
80779;SHT30;70170;47.856;10.956;2023-05-29T11:01:52;22.49;49.19
80779;SHT30;70170;47.856;10.956;2023-05-29T11:06:47;22.69;47.14
80779;SHT30;70170;47.856;10.956;2023-05-29T11:09:32;22.58;47.44
80779;SHT30;70170;47.856;10.956;2023-05-29T11:17:51;22.81;50.30
80779;SHT30;70170;47.856;10.956;2023-05-29T11:20:27;21.85;48.04
80779;SHT30;70170;47.856;10.956;2023-05-29T11:23:00;22.71;47.15
80779;SHT30;70170;47.856;10.956;2023-05-29T11:25:27;23.44;45.09
80779;SHT30;70170;47.856;10.956;2023-05-29T11:27:52;22.37;46.88
80779;SHT30;70170;47.856;10.956;2023-05-29T11:30:21;22.30;47.56
80779;SHT30;70170;47.856;10.956;2023-05-29T11:32:47;22.54;47.58
80779;SHT30;70170;47.856;10.956;2023-05-29T11:35:13;22.89;50.32
80779;SHT30;70170;47.856;10.956;2023-05-29T11:37:40;22.81;47.04
80779;SHT30;70170;47.856;10.956;2023-05-29T11:40:07;23.21;46.62
80779;SHT30;70170;47.856;10.956;2023-05-29T11:42:34;22.98;48.21
80779;SHT30;70170;47.856;10.956;2023-05-29T11:45:14;23.03;49.35
80779;SHT30;70170;47.856;10.956;2023-05-29T11:48:07;23.03;46.44
80779;SHT30;70170;47.856;10.956;2023-05-29T11:50:36;23.13;45.36
80779;SHT30;70170;47.856;10.956;2023-05-29T11:53:01;22.47;46.47
80779;SHT30;70170;47.856;10.956;2023-05-29T11:55:27;22.47;48.13
80779;SHT30;70170;47.856;10.956;2023-05-29T11:58:02;22.24;49.54
80779;SHT30;70170;47.856;10.956;2023-05-29T12:02:58;23.45;45.79
80779;SHT30;70170;47.856;10.956;2023-05-29T12:05:28;23.26;47.86
80779;SHT30;70170;47.856;10.956;2023-05-29T12:07:54;23.26;47.90
80779;SHT30;70170;47.856;10.956;2023-05-29T12:10:23;22.38;46.94
80779;SHT30;70170;47.856;10.956;2023-05-29T12:12:54;23.20;47.39
80779;SHT30;70170;47.856;10.956;2023-05-29T12:15:20;23.57;47.03
80779;SHT30;70170;47.856;10.956;2023-05-29T12:17:47;22.88;45.82
80779;SHT30;70170;47.856;10.956;2023-05-29T12:20:14;23.68;46.56
80779;SHT30;70170;47.856;10.956;2023-05-29T12:22:41;23.20;46.31
80779;SHT30;70170;47.856;10.956;2023-05-29T12:25:20;23.38;45.44
80779;SHT30;70170;47.856;10.956;2023-05-29T12:27:46;23.53;47.33
80779;SHT30;70170;47.856;10.956;2023-05-29T12:30:30;22.85;46.31
80779;SHT30;70170;47.856;10.956;2023-05-29T12:32:56;23.68;46.64
80779;SHT30;70170;47.856;10.956;2023-05-29T12:35:24;22.61;46.21
80779;SHT30;70170;47.856;10.956;2023-05-29T12:37:56;23.04;47.69
80779;SHT30;70170;47.856;10.956;2023-05-29T12:40:27;23.54;49.04
80779;SHT30;70170;47.856;10.956;2023-05-29T12:43:08;23.81;45.56
80779;SHT30;70170;47.856;10.956;2023-05-29T12:45:36;23.41;47.67
80779;SHT30;70170;47.856;10.956;2023-05-29T12:48:03;23.28;46.85
80779;SHT30;70170;47.856;10.956;2023-05-29T12:50:30;23.23;45.87
80779;SHT30;70170;47.856;10.956;2023-05-29T12:53:03;23.58;48.66
80779;SHT30;70170;47.856;10.956;2023-05-29T12:55:30;23.13;45.80
80779;SHT30;70170;47.856;10.956;2023-05-29T12:57:58;22.99;46.34
80779;SHT30;70170;47.856;10.956;2023-05-29T13:00:24;22.17;49.21
80779;SHT30;70170;47.856;10.956;2023-05-29T13:02:50;21.86;50.56
80779;SHT30;70170;47.856;10.956;2023-05-29T13:05:16;22.86;48.09
80779;SHT30;70170;47.856;10.956;2023-05-29T13:07:44;23.31;49.28
80779;SHT30;70170;47.856;10.956;2023-05-29T13:10:09;23.78;47.69
80779;SHT30;70170;47.856;10.956;2023-05-29T13:12:35;23.14;47.21
80779;SHT30;70170;47.856;10.956;2023-05-29T13:15:00;23.38;48.71
80779;SHT30;70170;47.856;10.956;2023-05-29T13:17:26;23.43;49.03
80779;SHT30;70170;47.856;10.956;2023-05-29T13:19:51;23.21;46.84
80779;SHT30;70170;47.856;10.956;2023-05-29T13:22:17;23.72;47.32
80779;SHT30;70170;47.856;10.956;2023-05-29T13:24:42;23.76;46.88
80779;SHT30;70170;47.856;10.956;2023-05-29T13:27:07;23.04;46.68
80779;SHT30;70170;47.856;10.956;2023-05-29T13:29:33;24.02;45.83
80779;SHT30;70170;47.856;10.956;2023-05-29T13:32:00;23.89;46.30
80779;SHT30;70170;47.856;10.956;2023-05-29T13:34:25;24.05;44.74
80779;SHT30;70170;47.856;10.956;2023-05-29T13:36:56;24.72;44.98
80779;SHT30;70170;47.856;10.956;2023-05-29T13:39:21;24.57;45.52
80779;SHT30;70170;47.856;10.956;2023-05-29T13:41:47;24.63;44.07
80779;SHT30;70170;47.856;10.956;2023-05-29T13:44:12;23.48;44.56
80779;SHT30;70170;47.856;10.956;2023-05-29T13:46:38;23.83;47.18
80779;SHT30;70170;47.856;10.956;2023-05-29T13:49:03;24.26;44.03
80779;SHT30;70170;47.856;10.956;2023-05-29T13:51:28;24.03;44.62
80779;SHT30;70170;47.856;10.956;2023-05-29T13:53:54;24.31;44.03
80779;SHT30;70170;47.856;10.956;2023-05-29T13:56:19;24.27;45.02
80779;SHT30;70170;47.856;10.956;2023-05-29T13:58:44;24.34;43.82
80779;SHT30;70170;47.856;10.956;2023-05-29T14:01:09;24.17;44.41
80779;SHT30;70170;47.856;10.956;2023-05-29T14:03:35;24.40;45.53
80779;SHT30;70170;47.856;10.956;2023-05-29T14:06:01;24.12;43.11
80779;SHT30;70170;47.856;10.956;2023-05-29T14:08:27;24.46;43.08
80779;SHT30;70170;47.856;10.956;2023-05-29T14:10:53;23.65;44.63
80779;SHT30;70170;47.856;10.956;2023-05-29T14:13:18;23.86;42.99
80779;SHT30;70170;47.856;10.956;2023-05-29T14:15:43;23.98;44.41
80779;SHT30;70170;47.856;10.956;2023-05-29T14:18:09;23.37;43.44
80779;SHT30;70170;47.856;10.956;2023-05-29T14:20:34;23.65;44.52
80779;SHT30;70170;47.856;10.956;2023-05-29T14:22:59;24.03;44.73
80779;SHT30;70170;47.856;10.956;2023-05-29T14:25:25;23.92;42.76
80779;SHT30;70170;47.856;10.956;2023-05-29T14:27:50;24.27;43.44
80779;SHT30;70170;47.856;10.956;2023-05-29T14:30:17;23.89;44.62
80779;SHT30;70170;47.856;10.956;2023-05-29T14:32:42;23.89;44.20
80779;SHT30;70170;47.856;10.956;2023-05-29T14:35:09;23.76;44.13
80779;SHT30;70170;47.856;10.956;2023-05-29T14:37:34;23.74;43.09
80779;SHT30;70170;47.856;10.956;2023-05-29T14:40:00;23.98;42.01
80779;SHT30;70170;47.856;10.956;2023-05-29T14:42:25;24.12;43.40
80779;SHT30;70170;47.856;10.956;2023-05-29T14:44:51;24.46;43.28
80779;SHT30;70170;47.856;10.956;2023-05-29T14:47:16;23.62;43.92
80779;SHT30;70170;47.856;10.956;2023-05-29T14:49:43;24.21;44.12
80779;SHT30;70170;47.856;10.956;2023-05-29T14:52:08;23.41;42.39
80779;SHT30;70170;47.856;10.956;2023-05-29T14:54:34;24.13;43.98
80779;SHT30;70170;47.856;10.956;2023-05-29T14:56:59;24.20;42.19
80779;SHT30;70170;47.856;10.956;2023-05-29T14:59:25;23.74;42.93
80779;SHT30;70170;47.856;10.956;2023-05-29T15:01:50;23.47;43.23
80779;SHT30;70170;47.856;10.956;2023-05-29T15:04:16;23.55;42.10
80779;SHT30;70170;47.856;10.956;2023-05-29T15:06:41;23.26;44.25
80779;SHT30;70170;47.856;10.956;2023-05-29T15:09:06;23.51;42.97
80779;SHT30;70170;47.856;10.956;2023-05-29T15:11:32;23.86;43.79
80779;SHT30;70170;47.856;10.956;2023-05-29T15:13:57;24.03;42.56
80779;SHT30;70170;47.856;10.956;2023-05-29T15:16:22;23.45;42.11
80779;SHT30;70170;47.856;10.956;2023-05-29T15:18:48;23.04;44.45
80779;SHT30;70170;47.856;10.956;2023-05-29T15:21:13;23.99;43.21
80779;SHT30;70170;47.856;10.956;2023-05-29T15:23:38;24.27;44.41
80779;SHT30;70170;47.856;10.956;2023-05-29T15:26:05;23.68;42.70
80779;SHT30;70170;47.856;10.956;2023-05-29T15:28:31;24.51;43.59
80779;SHT30;70170;47.856;10.956;2023-05-29T15:30:58;24.20;41.38
80779;SHT30;70170;47.856;10.956;2023-05-29T15:33:23;24.65;40.46
80779;SHT30;70170;47.856;10.956;2023-05-29T15:35:49;24.46;42.73
80779;SHT30;70170;47.856;10.956;2023-05-29T15:38:15;24.65;44.14